Mustafa Dayi — TCZF2 — position and weather

sailwx.info

Track history (hours):
 
Tides and Currents Weather Stations Pressure Air Temp Water Temp Dewpoint Dewpoint Depression Visibility Wind Speed Wind Dir Waves Ship Positions

Mustafa Dayi

Last reported at 2014-Oct-24 20:13 UTC. Time now 2014-Oct-25 07:55 UTC.
Position N 37°34' E 025°53'.

Length 183 m; draft 8.7 m.

Type: Ship. MMSI: 271042433.

Date/timePositionNaut miles runAvg speedWind from/ knotsBaromVisibWave heightAir tempDewpointWater temp
2014-Oct-24 20:13N 37°34' E 025°53'914.1
2014-Oct-24 19:34N 37°26' E 025°59'1514.5
2014-Oct-24 18:34N 37°17' E 026°14'1514.5
2014-Oct-24 17:34N 37°08' E 026°29'1813.8
2014-Oct-24 16:16N 36°54' E 026°42'1114.7
2014-Oct-24 15:32N 36°44' E 026°45'1514.8
2014-Oct-24 14:34N 36°30' E 026°50'1514.6
2014-Oct-24 13:34N 36°17' E 026°60'  
2014-Oct-22 02:21N 35°26' E 032°28'1114.1
2014-Oct-22 01:33N 35°32' E 032°39'1413.8
2014-Oct-22 00:33N 35°38' E 032°54'27 0.9
2014-Oct-20 18:32N 35°57' E 032°31'30713.3
2014-Oct-19 19:32N 36°11' E 026°12'1313.0
2014-Oct-19 18:33N 36°10' E 025°56'1313.4
2014-Oct-19 17:33N 36°09' E 025°39'1313.3
2014-Oct-19 16:33N 36°09' E 025°23'1413.6
2014-Oct-19 15:34N 36°10' E 025°06'1413.5
2014-Oct-19 14:33N 36°11' E 024°49'1414.0
2014-Oct-19 13:33N 36°13' E 024°32'1413.9
2014-Oct-19 12:33N 36°15' E 024°15'1313.2
2014-Oct-19 11:33N 36°16' E 023°59'43813.7
2014-Oct-18 03:28N 36°22' E 014°55'1415.1
2014-Oct-18 02:34N 36°26' E 014°39'1514.8
2014-Oct-18 01:34N 36°30' E 014°21'1414.5
2014-Oct-18 00:33N 36°34' E 014°04'1414.2
2014-Oct-17 23:34N 36°38' E 013°47'1413.9
2014-Oct-17 22:34N 36°42' E 013°30'1413.6
2014-Oct-17 21:33N 36°45' E 013°14'1313.3
2014-Oct-17 20:33N 36°48' E 012°57'1313.4
2014-Oct-17 19:33N 36°52' E 012°41'1413.8
2014-Oct-17 18:34N 36°55' E 012°25'1414.0
2014-Oct-17 17:33N 36°59' E 012°08'1414.4
2014-Oct-17 16:34N 37°05' E 011°51'1414.4
2014-Oct-17 15:33N 37°11' E 011°35'1414.2
2014-Oct-17 14:33N 37°18' E 011°19'1714.4
2014-Oct-17 13:24N 37°25' E 011°00'1214.7
2014-Oct-17 12:33N 37°28' E 010°45'1515.0
2014-Oct-17 11:33N 37°31' E 010°26'1515.1
2014-Oct-17 10:33N 37°33' E 010°08'3015.1
2014-Oct-17 08:33N 37°26' E 009°31'1615.5
2014-Oct-17 07:33N 37°22' E 009°12'1615.4
2014-Oct-17 06:30N 37°19' E 008°52'1915.1
2014-Oct-17 05:15N 37°18' E 008°28'21114.3
2014-Oct-16 14:32N 37°06' E 004°04'23514.6
2014-Oct-15 22:30N 36°27' W 000°45'21515.0
2014-Oct-15 08:10N 35°59' W 005°09'1016.6
2014-Oct-15 07:33N 35°58' W 005°21'  
Track history (hours):
 
Tides and Currents Weather Stations Pressure Air Temp Water Temp Dewpoint Dewpoint Depression Visibility Wind Speed Wind Dir Waves Ship Positions

Mustafa Dayi

Last reported at 2014-Oct-24 20:13 UTC. Time now 2014-Oct-25 07:55 UTC.
Position N 37°34' E 025°53'.

Length 183 m; draft 8.7 m.

Type: Ship. MMSI: 271042433.

Date/timePositionNaut miles runAvg speedWind from/ knotsBaromVisibWave heightAir tempDewpointWater temp
2014-Oct-24 20:13N 37°34' E 025°53'914.1
2014-Oct-24 19:34N 37°26' E 025°59'1514.5
2014-Oct-24 18:34N 37°17' E 026°14'1514.5
2014-Oct-24 17:34N 37°08' E 026°29'1813.8
2014-Oct-24 16:16N 36°54' E 026°42'1114.7
2014-Oct-24 15:32N 36°44' E 026°45'1514.8
2014-Oct-24 14:34N 36°30' E 026°50'1514.6
2014-Oct-24 13:34N 36°17' E 026°60'  
2014-Oct-22 02:21N 35°26' E 032°28'1114.1
2014-Oct-22 01:33N 35°32' E 032°39'1413.8
2014-Oct-22 00:33N 35°38' E 032°54'27 0.9
2014-Oct-20 18:32N 35°57' E 032°31'30713.3
2014-Oct-19 19:32N 36°11' E 026°12'1313.0
2014-Oct-19 18:33N 36°10' E 025°56'1313.4
2014-Oct-19 17:33N 36°09' E 025°39'1313.3
2014-Oct-19 16:33N 36°09' E 025°23'1413.6
2014-Oct-19 15:34N 36°10' E 025°06'1413.5
2014-Oct-19 14:33N 36°11' E 024°49'1414.0
2014-Oct-19 13:33N 36°13' E 024°32'1413.9
2014-Oct-19 12:33N 36°15' E 024°15'1313.2
2014-Oct-19 11:33N 36°16' E 023°59'43813.7
2014-Oct-18 03:28N 36°22' E 014°55'1415.1
2014-Oct-18 02:34N 36°26' E 014°39'1514.8
2014-Oct-18 01:34N 36°30' E 014°21'1414.5
2014-Oct-18 00:33N 36°34' E 014°04'1414.2
2014-Oct-17 23:34N 36°38' E 013°47'1413.9
2014-Oct-17 22:34N 36°42' E 013°30'1413.6
2014-Oct-17 21:33N 36°45' E 013°14'1313.3
2014-Oct-17 20:33N 36°48' E 012°57'1313.4
2014-Oct-17 19:33N 36°52' E 012°41'1413.8
2014-Oct-17 18:34N 36°55' E 012°25'1414.0
2014-Oct-17 17:33N 36°59' E 012°08'1414.4
2014-Oct-17 16:34N 37°05' E 011°51'1414.4
2014-Oct-17 15:33N 37°11' E 011°35'1414.2
2014-Oct-17 14:33N 37°18' E 011°19'1714.4
2014-Oct-17 13:24N 37°25' E 011°00'1214.7
2014-Oct-17 12:33N 37°28' E 010°45'1515.0
2014-Oct-17 11:33N 37°31' E 010°26'1515.1
2014-Oct-17 10:33N 37°33' E 010°08'3015.1
2014-Oct-17 08:33N 37°26' E 009°31'1615.5
2014-Oct-17 07:33N 37°22' E 009°12'1615.4
2014-Oct-17 06:30N 37°19' E 008°52'1915.1
2014-Oct-17 05:15N 37°18' E 008°28'21114.3
2014-Oct-16 14:32N 37°06' E 004°04'23514.6
2014-Oct-15 22:30N 36°27' W 000°45'21515.0
2014-Oct-15 08:10N 35°59' W 005°09'1016.6
2014-Oct-15 07:33N 35°58' W 005°21'  

Dump ship's entire track history